sensor_id;sensor_type;location;lat;lon;timestamp;temperature;humidity
296;DHT22;132;48.770;9.200;2022-12-07T00:00:03;4.50;1.00
296;DHT22;132;48.770;9.200;2022-12-07T00:02:51;4.40;1.00
296;DHT22;132;48.770;9.200;2022-12-07T00:05:37;4.40;1.00
296;DHT22;132;48.770;9.200;2022-12-07T00:08:24;5.40;1.00
296;DHT22;132;48.770;9.200;2022-12-07T00:11:14;4.50;1.00
296;DHT22;132;48.770;9.200;2022-12-07T00:14:04;4.50;1.00
296;DHT22;132;48.770;9.200;2022-12-07T00:16:51;4.50;1.00
296;DHT22;132;48.770;9.200;2022-12-07T00:19:38;4.50;1.00
296;DHT22;132;48.770;9.200;2022-12-07T00:22:25;4.50;1.00
296;DHT22;132;48.770;9.200;2022-12-07T00:25:11;4.50;1.00
296;DHT22;132;48.770;9.200;2022-12-07T00:27:58;4.50;1.00
296;DHT22;132;48.770;9.200;2022-12-07T00:30:45;4.40;1.00
296;DHT22;132;48.770;9.200;2022-12-07T00:33:33;4.50;1.00
296;DHT22;132;48.770;9.200;2022-12-07T00:36:23;4.50;1.00
296;DHT22;132;48.770;9.200;2022-12-07T00:39:09;4.40;1.00
296;DHT22;132;48.770;9.200;2022-12-07T00:41:56;4.40;1.00
296;DHT22;132;48.770;9.200;2022-12-07T00:44:43;4.50;1.00
296;DHT22;132;48.770;9.200;2022-12-07T00:47:29;4.50;1.00
296;DHT22;132;48.770;9.200;2022-12-07T00:50:16;4.40;1.00
296;DHT22;132;48.770;9.200;2022-12-07T00:53:03;4.40;1.00
296;DHT22;132;48.770;9.200;2022-12-07T00:55:49;4.40;1.00
296;DHT22;132;48.770;9.200;2022-12-07T00:58:36;4.40;1.00
296;DHT22;132;48.770;9.200;2022-12-07T01:01:24;4.40;1.00
296;DHT22;132;48.770;9.200;2022-12-07T01:04:11;4.40;1.00
296;DHT22;132;48.770;9.200;2022-12-07T01:06:57;4.40;1.00
296;DHT22;132;48.770;9.200;2022-12-07T01:09:44;4.40;1.00
296;DHT22;132;48.770;9.200;2022-12-07T01:12:31;4.30;1.00
296;DHT22;132;48.770;9.200;2022-12-07T01:15:17;4.40;1.00
296;DHT22;132;48.770;9.200;2022-12-07T01:18:04;4.40;1.00
296;DHT22;132;48.770;9.200;2022-12-07T01:21:04;4.40;1.00
296;DHT22;132;48.770;9.200;2022-12-07T01:23:51;4.40;1.00
296;DHT22;132;48.770;9.200;2022-12-07T01:26:38;4.40;1.00
296;DHT22;132;48.770;9.200;2022-12-07T01:29:25;4.40;1.00
296;DHT22;132;48.770;9.200;2022-12-07T01:32:12;4.50;1.00
296;DHT22;132;48.770;9.200;2022-12-07T01:34:59;4.50;1.00
296;DHT22;132;48.770;9.200;2022-12-07T01:37:46;4.50;1.00
296;DHT22;132;48.770;9.200;2022-12-07T01:40:32;4.50;1.00
296;DHT22;132;48.770;9.200;2022-12-07T01:43:20;4.50;1.00
296;DHT22;132;48.770;9.200;2022-12-07T01:46:07;4.40;1.00
296;DHT22;132;48.770;9.200;2022-12-07T01:48:54;4.40;1.00
296;DHT22;132;48.770;9.200;2022-12-07T01:51:42;4.30;1.00
296;DHT22;132;48.770;9.200;2022-12-07T01:54:30;4.50;1.00
296;DHT22;132;48.770;9.200;2022-12-07T01:57:17;4.30;1.00
296;DHT22;132;48.770;9.200;2022-12-07T02:00:06;4.30;1.00
296;DHT22;132;48.770;9.200;2022-12-07T02:03:19;4.30;1.00
296;DHT22;132;48.770;9.200;2022-12-07T02:06:10;4.30;1.00
296;DHT22;132;48.770;9.200;2022-12-07T02:08:57;4.30;1.00
296;DHT22;132;48.770;9.200;2022-12-07T02:11:44;4.30;1.00
296;DHT22;132;48.770;9.200;2022-12-07T02:14:31;4.30;1.00
296;DHT22;132;48.770;9.200;2022-12-07T02:17:42;4.30;1.00
296;DHT22;132;48.770;9.200;2022-12-07T02:20:39;4.30;1.00
296;DHT22;132;48.770;9.200;2022-12-07T02:23:40;4.30;1.00
296;DHT22;132;48.770;9.200;2022-12-07T02:30:00;4.40;1.00
296;DHT22;132;48.770;9.200;2022-12-07T02:35:48;5.90;1.00
296;DHT22;132;48.770;9.200;2022-12-07T02:38:50;4.30;1.00
296;DHT22;132;48.770;9.200;2022-12-07T02:41:52;4.30;1.00
296;DHT22;132;48.770;9.200;2022-12-07T02:44:41;4.30;1.00
296;DHT22;132;48.770;9.200;2022-12-07T02:47:29;4.30;1.00
296;DHT22;132;48.770;9.200;2022-12-07T02:50:20;4.40;1.00
296;DHT22;132;48.770;9.200;2022-12-07T02:53:28;4.40;1.00
296;DHT22;132;48.770;9.200;2022-12-07T03:06:03;4.30;1.00
296;DHT22;132;48.770;9.200;2022-12-07T03:12:37;4.30;1.00
296;DHT22;132;48.770;9.200;2022-12-07T03:15:32;4.30;1.00
296;DHT22;132;48.770;9.200;2022-12-07T03:18:22;4.30;1.00
296;DHT22;132;48.770;9.200;2022-12-07T03:21:14;4.30;1.00
296;DHT22;132;48.770;9.200;2022-12-07T03:24:07;4.20;1.00
296;DHT22;132;48.770;9.200;2022-12-07T03:27:07;4.20;1.00
296;DHT22;132;48.770;9.200;2022-12-07T03:30:07;4.20;1.00
296;DHT22;132;48.770;9.200;2022-12-07T03:33:13;4.20;1.00
296;DHT22;132;48.770;9.200;2022-12-07T03:36:07;4.20;1.00
296;DHT22;132;48.770;9.200;2022-12-07T03:42:01;4.20;1.00
296;DHT22;132;48.770;9.200;2022-12-07T03:44:50;4.20;1.00
296;DHT22;132;48.770;9.200;2022-12-07T03:50:56;4.10;1.00
296;DHT22;132;48.770;9.200;2022-12-07T03:53:47;4.10;1.00
296;DHT22;132;48.770;9.200;2022-12-07T03:56:35;4.10;1.00
296;DHT22;132;48.770;9.200;2022-12-07T03:59:23;4.10;1.00
296;DHT22;132;48.770;9.200;2022-12-07T04:02:12;4.10;1.00
296;DHT22;132;48.770;9.200;2022-12-07T04:05:01;4.10;1.00
296;DHT22;132;48.770;9.200;2022-12-07T04:07:47;4.10;1.00
296;DHT22;132;48.770;9.200;2022-12-07T04:10:34;4.00;1.00
296;DHT22;132;48.770;9.200;2022-12-07T04:13:21;4.00;1.00
296;DHT22;132;48.770;9.200;2022-12-07T04:16:07;4.00;1.00
296;DHT22;132;48.770;9.200;2022-12-07T04:18:54;3.90;1.00
296;DHT22;132;48.770;9.200;2022-12-07T04:21:41;3.90;1.00
296;DHT22;132;48.770;9.200;2022-12-07T04:24:28;3.80;1.00
296;DHT22;132;48.770;9.200;2022-12-07T04:27:15;3.80;1.00
296;DHT22;132;48.770;9.200;2022-12-07T04:30:02;4.00;1.00
296;DHT22;132;48.770;9.200;2022-12-07T04:32:49;3.70;1.00
296;DHT22;132;48.770;9.200;2022-12-07T04:35:35;3.70;1.00
296;DHT22;132;48.770;9.200;2022-12-07T04:38:22;3.70;1.00
296;DHT22;132;48.770;9.200;2022-12-07T04:41:09;3.70;1.00
296;DHT22;132;48.770;9.200;2022-12-07T04:43:58;3.70;1.00
296;DHT22;132;48.770;9.200;2022-12-07T04:46:45;3.90;1.00
296;DHT22;132;48.770;9.200;2022-12-07T04:49:32;3.80;1.00
296;DHT22;132;48.770;9.200;2022-12-07T04:52:19;3.80;1.00
296;DHT22;132;48.770;9.200;2022-12-07T04:55:06;3.80;1.00
296;DHT22;132;48.770;9.200;2022-12-07T04:57:53;3.80;1.00
296;DHT22;132;48.770;9.200;2022-12-07T05:00:39;3.80;1.00
296;DHT22;132;48.770;9.200;2022-12-07T05:03:26;3.70;1.00
296;DHT22;132;48.770;9.200;2022-12-07T05:06:13;3.70;1.00
296;DHT22;132;48.770;9.200;2022-12-07T05:09:00;3.80;1.00
296;DHT22;132;48.770;9.200;2022-12-07T05:11:47;3.80;1.00
296;DHT22;132;48.770;9.200;2022-12-07T05:14:34;3.90;1.00
296;DHT22;132;48.770;9.200;2022-12-07T05:17:20;3.90;1.00
296;DHT22;132;48.770;9.200;2022-12-07T05:20:08;3.90;1.00
296;DHT22;132;48.770;9.200;2022-12-07T05:22:55;3.90;1.00
296;DHT22;132;48.770;9.200;2022-12-07T05:25:42;3.80;1.00
296;DHT22;132;48.770;9.200;2022-12-07T05:28:28;3.80;1.00
296;DHT22;132;48.770;9.200;2022-12-07T05:31:15;3.80;1.00
296;DHT22;132;48.770;9.200;2022-12-07T05:34:01;3.70;1.00
296;DHT22;132;48.770;9.200;2022-12-07T05:36:48;3.70;1.00
296;DHT22;132;48.770;9.200;2022-12-07T05:39:35;3.70;1.00
296;DHT22;132;48.770;9.200;2022-12-07T05:42:22;3.60;1.00
296;DHT22;132;48.770;9.200;2022-12-07T05:45:09;3.50;1.00
296;DHT22;132;48.770;9.200;2022-12-07T05:47:56;3.40;1.00
296;DHT22;132;48.770;9.200;2022-12-07T05:50:42;3.30;1.00
296;DHT22;132;48.770;9.200;2022-12-07T05:53:29;3.30;1.00
296;DHT22;132;48.770;9.200;2022-12-07T05:56:16;3.20;1.00
296;DHT22;132;48.770;9.200;2022-12-07T05:59:02;3.20;1.00
296;DHT22;132;48.770;9.200;2022-12-07T06:02:11;3.30;1.00
296;DHT22;132;48.770;9.200;2022-12-07T06:04:57;3.30;1.00
296;DHT22;132;48.770;9.200;2022-12-07T06:07:44;3.30;1.00
296;DHT22;132;48.770;9.200;2022-12-07T06:10:31;3.40;1.00
296;DHT22;132;48.770;9.200;2022-12-07T06:13:17;3.40;1.00
296;DHT22;132;48.770;9.200;2022-12-07T06:16:04;3.40;1.00
296;DHT22;132;48.770;9.200;2022-12-07T06:18:51;3.40;1.00
296;DHT22;132;48.770;9.200;2022-12-07T06:21:37;3.40;1.00
296;DHT22;132;48.770;9.200;2022-12-07T06:24:24;3.40;1.00
296;DHT22;132;48.770;9.200;2022-12-07T06:27:11;3.40;1.00
296;DHT22;132;48.770;9.200;2022-12-07T06:29:58;3.40;1.00
296;DHT22;132;48.770;9.200;2022-12-07T06:32:45;3.40;1.00
296;DHT22;132;48.770;9.200;2022-12-07T06:35:35;3.40;1.00
296;DHT22;132;48.770;9.200;2022-12-07T06:38:21;3.40;1.00
296;DHT22;132;48.770;9.200;2022-12-07T06:41:08;3.50;1.00
296;DHT22;132;48.770;9.200;2022-12-07T06:43:54;3.70;1.00
296;DHT22;132;48.770;9.200;2022-12-07T06:46:41;3.50;1.00
296;DHT22;132;48.770;9.200;2022-12-07T06:49:28;3.50;1.00
296;DHT22;132;48.770;9.200;2022-12-07T06:52:14;3.50;1.00
296;DHT22;132;48.770;9.200;2022-12-07T06:55:01;3.50;1.00
296;DHT22;132;48.770;9.200;2022-12-07T06:57:48;3.50;1.00
296;DHT22;132;48.770;9.200;2022-12-07T07:00:34;3.50;1.00
296;DHT22;132;48.770;9.200;2022-12-07T07:03:21;3.60;1.00
296;DHT22;132;48.770;9.200;2022-12-07T07:06:08;3.60;1.00
296;DHT22;132;48.770;9.200;2022-12-07T07:08:55;3.70;1.00
296;DHT22;132;48.770;9.200;2022-12-07T07:11:41;3.60;1.00
296;DHT22;132;48.770;9.200;2022-12-07T07:14:28;3.60;1.00
296;DHT22;132;48.770;9.200;2022-12-07T07:17:15;3.60;1.00
296;DHT22;132;48.770;9.200;2022-12-07T07:20:01;3.60;1.00
296;DHT22;132;48.770;9.200;2022-12-07T07:22:48;3.60;1.00
296;DHT22;132;48.770;9.200;2022-12-07T07:25:35;3.70;1.00
296;DHT22;132;48.770;9.200;2022-12-07T07:28:21;3.70;1.00
296;DHT22;132;48.770;9.200;2022-12-07T07:31:08;3.70;1.00
296;DHT22;132;48.770;9.200;2022-12-07T07:33:55;3.70;1.00
296;DHT22;132;48.770;9.200;2022-12-07T07:36:41;3.80;1.00
296;DHT22;132;48.770;9.200;2022-12-07T07:39:28;3.80;1.00
296;DHT22;132;48.770;9.200;2022-12-07T07:42:15;3.80;1.00
296;DHT22;132;48.770;9.200;2022-12-07T07:45:03;3.90;1.00
296;DHT22;132;48.770;9.200;2022-12-07T07:47:51;3.90;1.00
296;DHT22;132;48.770;9.200;2022-12-07T07:50:37;3.90;1.00
296;DHT22;132;48.770;9.200;2022-12-07T07:53:24;3.90;1.00
296;DHT22;132;48.770;9.200;2022-12-07T07:56:11;3.90;1.00
296;DHT22;132;48.770;9.200;2022-12-07T07:58:58;3.90;1.00
296;DHT22;132;48.770;9.200;2022-12-07T08:01:44;4.00;1.00
296;DHT22;132;48.770;9.200;2022-12-07T08:04:31;4.00;1.00
296;DHT22;132;48.770;9.200;2022-12-07T08:07:17;4.10;1.00
296;DHT22;132;48.770;9.200;2022-12-07T08:10:05;4.10;1.00
296;DHT22;132;48.770;9.200;2022-12-07T08:12:52;4.10;1.00
296;DHT22;132;48.770;9.200;2022-12-07T08:15:57;4.10;1.00
296;DHT22;132;48.770;9.200;2022-12-07T08:18:43;4.20;1.00
296;DHT22;132;48.770;9.200;2022-12-07T08:21:30;4.30;1.00
296;DHT22;132;48.770;9.200;2022-12-07T08:24:17;4.30;1.00
296;DHT22;132;48.770;9.200;2022-12-07T08:27:04;4.40;1.00
296;DHT22;132;48.770;9.200;2022-12-07T08:29:50;4.40;1.00
296;DHT22;132;48.770;9.200;2022-12-07T08:32:37;4.50;1.00
296;DHT22;132;48.770;9.200;2022-12-07T08:35:24;4.50;1.00
296;DHT22;132;48.770;9.200;2022-12-07T08:38:11;4.50;1.00
296;DHT22;132;48.770;9.200;2022-12-07T08:40:58;4.50;1.00
296;DHT22;132;48.770;9.200;2022-12-07T08:43:45;4.60;1.00
296;DHT22;132;48.770;9.200;2022-12-07T08:46:54;4.60;1.00
296;DHT22;132;48.770;9.200;2022-12-07T08:49:46;4.70;1.00
296;DHT22;132;48.770;9.200;2022-12-07T08:52:34;4.70;1.00
296;DHT22;132;48.770;9.200;2022-12-07T08:55:22;4.80;1.00
296;DHT22;132;48.770;9.200;2022-12-07T08:58:09;4.80;1.00
296;DHT22;132;48.770;9.200;2022-12-07T09:00:56;4.90;1.00
296;DHT22;132;48.770;9.200;2022-12-07T09:03:42;4.90;1.00
296;DHT22;132;48.770;9.200;2022-12-07T09:06:29;4.90;1.00
296;DHT22;132;48.770;9.200;2022-12-07T09:09:16;5.00;1.00
296;DHT22;132;48.770;9.200;2022-12-07T09:12:02;5.00;1.00
296;DHT22;132;48.770;9.200;2022-12-07T09:14:49;5.10;1.00
296;DHT22;132;48.770;9.200;2022-12-07T09:17:36;5.20;1.00
296;DHT22;132;48.770;9.200;2022-12-07T09:20:23;5.10;1.00
296;DHT22;132;48.770;9.200;2022-12-07T09:23:10;5.10;1.00
296;DHT22;132;48.770;9.200;2022-12-07T09:26:03;5.20;1.00
296;DHT22;132;48.770;9.200;2022-12-07T09:28:51;5.20;1.00
296;DHT22;132;48.770;9.200;2022-12-07T09:31:37;5.20;1.00
296;DHT22;132;48.770;9.200;2022-12-07T09:34:24;5.30;1.00
296;DHT22;132;48.770;9.200;2022-12-07T09:37:12;5.30;1.00
296;DHT22;132;48.770;9.200;2022-12-07T09:39:59;5.40;1.00
296;DHT22;132;48.770;9.200;2022-12-07T09:42:49;5.40;1.00
296;DHT22;132;48.770;9.200;2022-12-07T09:45:38;5.40;1.00
296;DHT22;132;48.770;9.200;2022-12-07T09:51:24;5.50;1.00
296;DHT22;132;48.770;9.200;2022-12-07T09:54:15;5.60;1.00
296;DHT22;132;48.770;9.200;2022-12-07T09:57:02;5.70;1.00
296;DHT22;132;48.770;9.200;2022-12-07T09:59:49;5.70;1.00
296;DHT22;132;48.770;9.200;2022-12-07T10:02:38;5.70;1.00
296;DHT22;132;48.770;9.200;2022-12-07T10:05:32;5.60;1.00
296;DHT22;132;48.770;9.200;2022-12-07T10:08:20;5.80;1.00
296;DHT22;132;48.770;9.200;2022-12-07T10:11:07;5.90;1.00
296;DHT22;132;48.770;9.200;2022-12-07T10:14:12;5.90;1.00
296;DHT22;132;48.770;9.200;2022-12-07T10:17:00;5.90;1.00
296;DHT22;132;48.770;9.200;2022-12-07T10:19:47;5.90;1.00
296;DHT22;132;48.770;9.200;2022-12-07T10:22:33;5.90;1.00
296;DHT22;132;48.770;9.200;2022-12-07T10:25:21;5.90;1.00
296;DHT22;132;48.770;9.200;2022-12-07T10:31:01;6.00;1.00
296;DHT22;132;48.770;9.200;2022-12-07T10:33:55;6.00;1.00
296;DHT22;132;48.770;9.200;2022-12-07T10:36:42;6.00;1.00
296;DHT22;132;48.770;9.200;2022-12-07T10:39:29;6.00;1.00
296;DHT22;132;48.770;9.200;2022-12-07T10:42:31;6.00;1.00
296;DHT22;132;48.770;9.200;2022-12-07T10:45:18;6.10;1.00
296;DHT22;132;48.770;9.200;2022-12-07T10:54:40;6.00;1.00
296;DHT22;132;48.770;9.200;2022-12-07T10:57:38;6.00;1.00
296;DHT22;132;48.770;9.200;2022-12-07T11:00:34;6.00;1.00
296;DHT22;132;48.770;9.200;2022-12-07T11:10:05;5.90;1.00
296;DHT22;132;48.770;9.200;2022-12-07T11:13:09;5.80;1.00
296;DHT22;132;48.770;9.200;2022-12-07T11:22:05;5.80;1.00
296;DHT22;132;48.770;9.200;2022-12-07T11:25:17;5.80;1.00
296;DHT22;132;48.770;9.200;2022-12-07T11:31:20;5.80;1.00
296;DHT22;132;48.770;9.200;2022-12-07T11:34:57;5.90;1.00
296;DHT22;132;48.770;9.200;2022-12-07T11:37:46;5.90;1.00
296;DHT22;132;48.770;9.200;2022-12-07T11:40:37;5.90;1.00
296;DHT22;132;48.770;9.200;2022-12-07T11:43:33;5.90;1.00
296;DHT22;132;48.770;9.200;2022-12-07T11:46:25;5.90;1.00
296;DHT22;132;48.770;9.200;2022-12-07T11:49:23;5.90;1.00
296;DHT22;132;48.770;9.200;2022-12-07T11:52:43;5.90;1.00
296;DHT22;132;48.770;9.200;2022-12-07T12:01:56;5.70;1.00
296;DHT22;132;48.770;9.200;2022-12-07T12:05:20;6.00;1.00
296;DHT22;132;48.770;9.200;2022-12-07T12:08:17;5.60;1.00
296;DHT22;132;48.770;9.200;2022-12-07T12:21:01;5.40;1.00
296;DHT22;132;48.770;9.200;2022-12-07T12:24:04;5.40;1.00
296;DHT22;132;48.770;9.200;2022-12-07T12:26:59;5.40;1.00
296;DHT22;132;48.770;9.200;2022-12-07T12:29:53;5.40;1.00
296;DHT22;132;48.770;9.200;2022-12-07T12:32:42;5.40;1.00
296;DHT22;132;48.770;9.200;2022-12-07T12:35:35;5.40;1.00
296;DHT22;132;48.770;9.200;2022-12-07T12:47:41;5.40;1.00
296;DHT22;132;48.770;9.200;2022-12-07T12:53:25;5.40;1.00
296;DHT22;132;48.770;9.200;2022-12-07T13:08:12;5.30;1.00
296;DHT22;132;48.770;9.200;2022-12-07T13:11:34;5.40;1.00
296;DHT22;132;48.770;9.200;2022-12-07T13:29:21;5.40;1.00
296;DHT22;132;48.770;9.200;2022-12-07T13:32:24;5.40;1.00
296;DHT22;132;48.770;9.200;2022-12-07T13:35:39;5.40;1.00
296;DHT22;132;48.770;9.200;2022-12-07T13:38:29;5.40;1.00
296;DHT22;132;48.770;9.200;2022-12-07T13:41:18;5.40;1.00
296;DHT22;132;48.770;9.200;2022-12-07T13:44:14;5.40;1.00
296;DHT22;132;48.770;9.200;2022-12-07T13:47:14;5.50;1.00
296;DHT22;132;48.770;9.200;2022-12-07T13:50:23;5.50;1.00
296;DHT22;132;48.770;9.200;2022-12-07T13:53:12;5.40;1.00
296;DHT22;132;48.770;9.200;2022-12-07T13:56:01;5.40;1.00
296;DHT22;132;48.770;9.200;2022-12-07T13:58:48;5.40;1.00
296;DHT22;132;48.770;9.200;2022-12-07T14:01:34;5.50;1.00
296;DHT22;132;48.770;9.200;2022-12-07T14:04:37;5.50;1.00
296;DHT22;132;48.770;9.200;2022-12-07T14:07:27;5.40;1.00
296;DHT22;132;48.770;9.200;2022-12-07T14:16:35;5.50;1.00
296;DHT22;132;48.770;9.200;2022-12-07T14:20:02;5.50;1.00
296;DHT22;132;48.770;9.200;2022-12-07T14:22:55;5.60;1.00
296;DHT22;132;48.770;9.200;2022-12-07T14:25:50;5.60;1.00
296;DHT22;132;48.770;9.200;2022-12-07T14:28:37;5.60;1.00
296;DHT22;132;48.770;9.200;2022-12-07T14:31:24;5.60;1.00
296;DHT22;132;48.770;9.200;2022-12-07T14:34:12;5.40;1.00
296;DHT22;132;48.770;9.200;2022-12-07T14:36:59;5.50;1.00
296;DHT22;132;48.770;9.200;2022-12-07T14:39:46;5.50;1.00
296;DHT22;132;48.770;9.200;2022-12-07T14:42:34;5.40;1.00
296;DHT22;132;48.770;9.200;2022-12-07T14:45:22;5.40;1.00
296;DHT22;132;48.770;9.200;2022-12-07T14:48:13;5.40;1.00
296;DHT22;132;48.770;9.200;2022-12-07T14:51:00;5.30;1.00
296;DHT22;132;48.770;9.200;2022-12-07T14:53:50;5.30;1.00
296;DHT22;132;48.770;9.200;2022-12-07T14:56:37;5.30;1.00
296;DHT22;132;48.770;9.200;2022-12-07T14:59:24;5.30;1.00
296;DHT22;132;48.770;9.200;2022-12-07T15:02:14;5.20;1.00
296;DHT22;132;48.770;9.200;2022-12-07T15:05:01;5.20;1.00
296;DHT22;132;48.770;9.200;2022-12-07T15:07:49;5.20;1.00
296;DHT22;132;48.770;9.200;2022-12-07T15:10:36;5.20;1.00
296;DHT22;132;48.770;9.200;2022-12-07T15:13:25;5.10;1.00
296;DHT22;132;48.770;9.200;2022-12-07T15:16:30;5.10;1.00
296;DHT22;132;48.770;9.200;2022-12-07T15:19:19;5.10;1.00
296;DHT22;132;48.770;9.200;2022-12-07T15:22:09;5.10;1.00
296;DHT22;132;48.770;9.200;2022-12-07T15:24:57;5.10;1.00
296;DHT22;132;48.770;9.200;2022-12-07T15:27:44;5.00;1.00
296;DHT22;132;48.770;9.200;2022-12-07T15:30:30;4.90;1.00
296;DHT22;132;48.770;9.200;2022-12-07T15:33:17;4.90;1.00
296;DHT22;132;48.770;9.200;2022-12-07T15:36:04;4.90;1.00
296;DHT22;132;48.770;9.200;2022-12-07T15:38:50;4.90;1.00
296;DHT22;132;48.770;9.200;2022-12-07T15:41:37;4.90;1.00
296;DHT22;132;48.770;9.200;2022-12-07T15:44:24;4.90;1.00
296;DHT22;132;48.770;9.200;2022-12-07T15:47:37;4.80;1.00
296;DHT22;132;48.770;9.200;2022-12-07T15:50:24;4.80;1.00
296;DHT22;132;48.770;9.200;2022-12-07T15:53:10;4.80;1.00
296;DHT22;132;48.770;9.200;2022-12-07T15:55:57;4.80;1.00
296;DHT22;132;48.770;9.200;2022-12-07T15:58:44;4.80;1.00
296;DHT22;132;48.770;9.200;2022-12-07T16:01:30;4.80;1.00
296;DHT22;132;48.770;9.200;2022-12-07T16:04:17;4.90;1.00
296;DHT22;132;48.770;9.200;2022-12-07T16:07:03;4.70;1.00
296;DHT22;132;48.770;9.200;2022-12-07T16:09:50;4.70;1.00
296;DHT22;132;48.770;9.200;2022-12-07T16:12:37;4.70;1.00
296;DHT22;132;48.770;9.200;2022-12-07T16:15:23;4.70;1.00
296;DHT22;132;48.770;9.200;2022-12-07T16:18:11;4.70;1.00
296;DHT22;132;48.770;9.200;2022-12-07T16:20:58;4.90;1.00
296;DHT22;132;48.770;9.200;2022-12-07T16:23:45;4.70;1.00
296;DHT22;132;48.770;9.200;2022-12-07T16:26:32;4.60;1.00
296;DHT22;132;48.770;9.200;2022-12-07T16:29:20;4.60;1.00
296;DHT22;132;48.770;9.200;2022-12-07T16:32:07;4.50;1.00
296;DHT22;132;48.770;9.200;2022-12-07T16:34:54;4.50;1.00
296;DHT22;132;48.770;9.200;2022-12-07T16:37:43;4.50;1.00
296;DHT22;132;48.770;9.200;2022-12-07T16:40:30;4.50;1.00
296;DHT22;132;48.770;9.200;2022-12-07T16:43:16;4.50;1.00
296;DHT22;132;48.770;9.200;2022-12-07T16:46:03;4.40;1.00
296;DHT22;132;48.770;9.200;2022-12-07T16:48:50;4.40;1.00
296;DHT22;132;48.770;9.200;2022-12-07T16:51:37;4.30;1.00
296;DHT22;132;48.770;9.200;2022-12-07T16:54:23;4.20;1.00
296;DHT22;132;48.770;9.200;2022-12-07T16:57:10;4.30;1.00
296;DHT22;132;48.770;9.200;2022-12-07T16:59:57;4.10;1.00
296;DHT22;132;48.770;9.200;2022-12-07T17:02:43;4.00;1.00
296;DHT22;132;48.770;9.200;2022-12-07T17:05:30;4.00;1.00
296;DHT22;132;48.770;9.200;2022-12-07T17:08:17;3.90;1.00
296;DHT22;132;48.770;9.200;2022-12-07T17:11:16;3.80;1.00
296;DHT22;132;48.770;9.200;2022-12-07T17:14:03;3.80;1.00
296;DHT22;132;48.770;9.200;2022-12-07T17:17:08;3.70;1.00
296;DHT22;132;48.770;9.200;2022-12-07T17:19:55;3.70;1.00
296;DHT22;132;48.770;9.200;2022-12-07T17:22:42;3.70;1.00
296;DHT22;132;48.770;9.200;2022-12-07T17:25:28;3.70;1.00
296;DHT22;132;48.770;9.200;2022-12-07T17:28:15;3.70;1.00
296;DHT22;132;48.770;9.200;2022-12-07T17:31:05;3.80;1.00
296;DHT22;132;48.770;9.200;2022-12-07T17:33:52;3.80;1.00
296;DHT22;132;48.770;9.200;2022-12-07T17:36:40;3.80;1.00
296;DHT22;132;48.770;9.200;2022-12-07T17:39:26;3.90;1.00
296;DHT22;132;48.770;9.200;2022-12-07T17:42:13;3.90;1.00
296;DHT22;132;48.770;9.200;2022-12-07T17:45:18;3.90;1.00
296;DHT22;132;48.770;9.200;2022-12-07T17:48:05;3.90;1.00
296;DHT22;132;48.770;9.200;2022-12-07T17:50:51;4.00;1.00
296;DHT22;132;48.770;9.200;2022-12-07T17:53:56;4.00;1.00
296;DHT22;132;48.770;9.200;2022-12-07T17:56:46;4.10;1.00
296;DHT22;132;48.770;9.200;2022-12-07T17:59:33;4.10;1.00
296;DHT22;132;48.770;9.200;2022-12-07T18:02:20;4.10;1.00
296;DHT22;132;48.770;9.200;2022-12-07T18:05:07;4.10;1.00
296;DHT22;132;48.770;9.200;2022-12-07T18:07:53;4.00;1.00
296;DHT22;132;48.770;9.200;2022-12-07T18:10:40;4.10;1.00
296;DHT22;132;48.770;9.200;2022-12-07T18:13:27;4.10;1.00
296;DHT22;132;48.770;9.200;2022-12-07T18:16:25;4.10;1.00
296;DHT22;132;48.770;9.200;2022-12-07T18:19:12;4.10;1.00
296;DHT22;132;48.770;9.200;2022-12-07T18:21:59;4.10;1.00
296;DHT22;132;48.770;9.200;2022-12-07T18:24:46;4.10;1.00
296;DHT22;132;48.770;9.200;2022-12-07T18:27:33;4.10;1.00
296;DHT22;132;48.770;9.200;2022-12-07T18:30:20;4.20;1.00
296;DHT22;132;48.770;9.200;2022-12-07T18:33:06;4.90;1.00
296;DHT22;132;48.770;9.200;2022-12-07T18:35:53;4.10;1.00
296;DHT22;132;48.770;9.200;2022-12-07T18:38:40;4.20;1.00
296;DHT22;132;48.770;9.200;2022-12-07T18:41:26;4.10;1.00
296;DHT22;132;48.770;9.200;2022-12-07T18:44:14;4.10;1.00
296;DHT22;132;48.770;9.200;2022-12-07T18:47:01;4.20;1.00
296;DHT22;132;48.770;9.200;2022-12-07T18:49:48;4.10;1.00
296;DHT22;132;48.770;9.200;2022-12-07T18:52:35;4.20;1.00
296;DHT22;132;48.770;9.200;2022-12-07T18:55:21;4.20;1.00
296;DHT22;132;48.770;9.200;2022-12-07T18:58:08;4.10;1.00
296;DHT22;132;48.770;9.200;2022-12-07T19:00:55;4.40;1.00
296;DHT22;132;48.770;9.200;2022-12-07T19:03:42;4.20;1.00
296;DHT22;132;48.770;9.200;2022-12-07T19:06:28;4.10;1.00
296;DHT22;132;48.770;9.200;2022-12-07T19:09:16;4.20;1.00
296;DHT22;132;48.770;9.200;2022-12-07T19:12:03;4.20;1.00
296;DHT22;132;48.770;9.200;2022-12-07T19:14:50;4.20;1.00
296;DHT22;132;48.770;9.200;2022-12-07T19:17:37;4.20;1.00
296;DHT22;132;48.770;9.200;2022-12-07T19:20:25;4.20;1.00
296;DHT22;132;48.770;9.200;2022-12-07T19:23:11;4.20;1.00
296;DHT22;132;48.770;9.200;2022-12-07T19:25:58;4.20;1.00
296;DHT22;132;48.770;9.200;2022-12-07T19:28:44;4.20;1.00
296;DHT22;132;48.770;9.200;2022-12-07T19:31:31;4.10;1.00
296;DHT22;132;48.770;9.200;2022-12-07T19:34:18;4.20;1.00
296;DHT22;132;48.770;9.200;2022-12-07T19:37:05;4.20;1.00
296;DHT22;132;48.770;9.200;2022-12-07T19:39:52;4.10;1.00
296;DHT22;132;48.770;9.200;2022-12-07T19:42:39;4.10;1.00
296;DHT22;132;48.770;9.200;2022-12-07T19:45:25;4.20;1.00
296;DHT22;132;48.770;9.200;2022-12-07T19:48:14;4.10;1.00
296;DHT22;132;48.770;9.200;2022-12-07T19:51:02;4.20;1.00
296;DHT22;132;48.770;9.200;2022-12-07T19:53:49;4.10;1.00
296;DHT22;132;48.770;9.200;2022-12-07T19:56:36;4.10;1.00
296;DHT22;132;48.770;9.200;2022-12-07T19:59:25;4.10;1.00
296;DHT22;132;48.770;9.200;2022-12-07T20:02:13;4.10;1.00
296;DHT22;132;48.770;9.200;2022-12-07T20:05:01;4.10;1.00
296;DHT22;132;48.770;9.200;2022-12-07T20:07:47;4.10;1.00
296;DHT22;132;48.770;9.200;2022-12-07T20:10:37;4.10;1.00
296;DHT22;132;48.770;9.200;2022-12-07T20:13:24;4.10;1.00
296;DHT22;132;48.770;9.200;2022-12-07T20:16:14;5.00;1.00
296;DHT22;132;48.770;9.200;2022-12-07T20:19:01;4.10;1.00
296;DHT22;132;48.770;9.200;2022-12-07T20:21:48;4.10;1.00
296;DHT22;132;48.770;9.200;2022-12-07T20:24:35;4.10;1.00
296;DHT22;132;48.770;9.200;2022-12-07T20:27:22;4.10;1.00
296;DHT22;132;48.770;9.200;2022-12-07T20:30:09;4.10;1.00
296;DHT22;132;48.770;9.200;2022-12-07T20:32:55;4.10;1.00
296;DHT22;132;48.770;9.200;2022-12-07T20:35:42;4.10;1.00
296;DHT22;132;48.770;9.200;2022-12-07T20:38:29;4.00;1.00
296;DHT22;132;48.770;9.200;2022-12-07T20:41:17;4.00;1.00
296;DHT22;132;48.770;9.200;2022-12-07T20:44:23;4.00;1.00
296;DHT22;132;48.770;9.200;2022-12-07T20:47:10;4.00;1.00
296;DHT22;132;48.770;9.200;2022-12-07T20:49:56;4.00;1.00
296;DHT22;132;48.770;9.200;2022-12-07T20:52:43;4.00;1.00
296;DHT22;132;48.770;9.200;2022-12-07T20:55:29;3.90;1.00
296;DHT22;132;48.770;9.200;2022-12-07T20:58:16;3.90;1.00
296;DHT22;132;48.770;9.200;2022-12-07T21:01:03;3.90;1.00
296;DHT22;132;48.770;9.200;2022-12-07T21:03:57;3.90;1.00
296;DHT22;132;48.770;9.200;2022-12-07T21:06:44;3.90;1.00
296;DHT22;132;48.770;9.200;2022-12-07T21:09:31;3.90;1.00
296;DHT22;132;48.770;9.200;2022-12-07T21:12:18;4.70;1.00
296;DHT22;132;48.770;9.200;2022-12-07T21:15:06;3.80;1.00
296;DHT22;132;48.770;9.200;2022-12-07T21:17:53;3.90;1.00
296;DHT22;132;48.770;9.200;2022-12-07T21:20:39;4.00;1.00
296;DHT22;132;48.770;9.200;2022-12-07T21:23:26;3.90;1.00
296;DHT22;132;48.770;9.200;2022-12-07T21:26:16;3.80;1.00
296;DHT22;132;48.770;9.200;2022-12-07T21:29:04;3.90;1.00
296;DHT22;132;48.770;9.200;2022-12-07T21:31:51;3.80;1.00
296;DHT22;132;48.770;9.200;2022-12-07T21:34:38;3.80;1.00
296;DHT22;132;48.770;9.200;2022-12-07T21:37:24;3.80;1.00